Time;durP1;ratioP1;P1;durP2;ratioP2;P2;SDS_P1;SDS_P2;PMS_P1;PMS_P2;Temp;Humidity;BMP_temperature;BMP_pressure;BME280_temperature;BME280_humidity;BME280_pressure;Samples;Min_cycle;Max_cycle;Signal;HPM_P1;HPM_P2
2023/12/08 00:02:04;;;;;;;107.43;40.43;;;;;;;;;;5093773;28;20792;-68
2023/12/08 00:04:30;;;;;;;110.37;40.40;;;;;;;;;;5075581;28;20886;-68
2023/12/08 00:06:57;;;;;;;107.97;40.47;;;;;;;;;;5093747;28;20419;-69
2023/12/08 00:09:24;;;;;;;100.20;37.30;;;;;;;;;;5076337;28;20415;-69
2023/12/08 00:11:51;;;;;;;104.00;39.10;;;;;;;;;;5093339;28;20454;-68
2023/12/08 00:14:35;;;;;;;111.50;39.33;;;;;;;;;;5093676;28;20853;-68
2023/12/08 00:17:02;;;;;;;109.80;40.03;;;;;;;;;;5075980;28;20448;-68
2023/12/08 00:19:28;;;;;;;100.73;38.07;;;;;;;;;;5093471;28;20418;-68
2023/12/08 00:21:55;;;;;;;113.53;40.70;;;;;;;;;;5093219;28;20935;-68
2023/12/08 00:24:22;;;;;;;105.33;38.83;;;;;;;;;;5093237;28;20427;-68
2023/12/08 00:26:49;;;;;;;113.37;38.40;;;;;;;;;;5096590;28;20423;-68
2023/12/08 00:29:19;;;;;;;101.27;36.00;;;;;;;;;;5097166;28;20526;-68
2023/12/08 00:31:45;;;;;;;111.20;38.43;;;;;;;;;;5079508;28;20439;-68
2023/12/08 00:34:12;;;;;;;106.70;37.07;;;;;;;;;;5079182;28;20423;-68
2023/12/08 00:36:40;;;;;;;105.60;36.53;;;;;;;;;;5097089;28;20514;-68
2023/12/08 00:39:07;;;;;;;114.47;39.03;;;;;;;;;;5079841;28;20917;-68
2023/12/08 00:41:34;;;;;;;118.27;37.93;;;;;;;;;;5078934;28;20945;-68
2023/12/08 00:44:01;;;;;;;117.90;38.57;;;;;;;;;;5096849;28;20468;-68
2023/12/08 00:46:28;;;;;;;119.73;38.83;;;;;;;;;;5097148;28;20430;-68
2023/12/08 00:48:54;;;;;;;117.40;38.33;;;;;;;;;;5096749;28;20451;-68
2023/12/08 00:51:21;;;;;;;122.03;38.73;;;;;;;;;;5096748;28;20948;-68
2023/12/08 00:53:48;;;;;;;118.37;38.60;;;;;;;;;;5078776;28;20426;-69
2023/12/08 00:56:32;;;;;;;106.33;35.27;;;;;;;;;;5082261;28;20379;-69
2023/12/08 00:58:58;;;;;;;115.10;38.20;;;;;;;;;;5097502;28;20439;-69
2023/12/08 01:01:25;;;;;;;111.37;37.67;;;;;;;;;;5096894;28;20481;-69
2023/12/08 01:03:52;;;;;;;114.43;37.60;;;;;;;;;;5095024;28;20416;-69
2023/12/08 01:06:18;;;;;;;119.20;37.73;;;;;;;;;;5076759;28;20523;-69
2023/12/08 01:08:45;;;;;;;125.67;40.13;;;;;;;;;;5076246;28;20416;-69
2023/12/08 01:11:12;;;;;;;122.30;40.10;;;;;;;;;;5076447;28;20798;-69
2023/12/08 01:49:28;;;;;;;118.80;35.57;;;;;;;;;;5096567;28;20419;-69
2023/12/08 01:51:55;;;;;;;118.63;38.60;;;;;;;;;;5095720;28;20778;-69
2023/12/08 01:54:39;;;;;;;113.50;38.27;;;;;;;;;;5096203;28;20387;-69
2023/12/08 01:57:05;;;;;;;125.47;40.37;;;;;;;;;;5077906;28;20411;-69
2023/12/08 01:59:32;;;;;;;113.07;37.13;;;;;;;;;;5077559;28;20428;-69
2023/12/08 02:01:58;;;;;;;109.87;32.87;;;;;;;;;;5077778;28;20538;-68
2023/12/08 02:04:25;;;;;;;122.60;36.70;;;;;;;;;;5077479;28;20829;-69
2023/12/08 02:06:52;;;;;;;123.87;37.47;;;;;;;;;;5095952;28;20446;-69
2023/12/08 02:09:19;;;;;;;116.17;36.30;;;;;;;;;;5061386;28;20740;-69
2023/12/08 02:11:46;;;;;;;121.37;38.80;;;;;;;;;;5077558;28;20410;-68
2023/12/08 02:14:30;;;;;;;116.90;36.57;;;;;;;;;;5065888;28;20929;-69
2023/12/08 02:16:59;;;;;;;113.63;35.60;;;;;;;;;;5072894;28;20433;-69
2023/12/08 02:19:44;;;;;;;108.73;33.97;;;;;;;;;;5060222;28;20393;-69
2023/12/08 02:22:10;;;;;;;113.97;34.13;;;;;;;;;;5075521;28;20448;-69
2023/12/08 02:24:37;;;;;;;112.03;33.27;;;;;;;;;;5057335;28;20493;-69
2023/12/08 02:27:04;;;;;;;106.20;33.23;;;;;;;;;;5075508;28;20425;-69
2023/12/08 02:29:30;;;;;;;107.30;32.40;;;;;;;;;;5057450;28;20482;-69
2023/12/08 02:31:57;;;;;;;101.03;32.87;;;;;;;;;;5074590;28;20465;-69
2023/12/08 02:34:24;;;;;;;93.80;30.43;;;;;;;;;;5074529;28;20427;-68
2023/12/08 02:36:50;;;;;;;96.97;30.97;;;;;;;;;;5057114;28;20408;-69
2023/12/08 02:39:35;;;;;;;91.63;29.43;;;;;;;;;;5073461;28;20404;-69
2023/12/08 02:42:02;;;;;;;80.60;28.77;;;;;;;;;;5073166;28;20420;-68
2023/12/08 02:44:29;;;;;;;86.80;28.67;;;;;;;;;;5040293;28;20741;-68
2023/12/08 02:46:55;;;;;;;81.70;28.37;;;;;;;;;;5074324;28;20994;-68
2023/12/08 02:49:22;;;;;;;80.37;28.30;;;;;;;;;;5053567;28;20769;-69
2023/12/08 02:52:06;;;;;;;78.17;28.53;;;;;;;;;;5054388;28;20378;-68
2023/12/08 02:54:32;;;;;;;80.50;28.27;;;;;;;;;;5054022;28;20425;-68
2023/12/08 02:57:17;;;;;;;84.73;27.97;;;;;;;;;;5054517;28;20781;-68
2023/12/08 02:59:43;;;;;;;82.87;28.47;;;;;;;;;;5054620;28;20753;-69
2023/12/08 03:02:10;;;;;;;79.97;28.20;;;;;;;;;;5054642;28;20460;-69
2023/12/08 03:04:37;;;;;;;82.47;28.73;;;;;;;;;;5069304;28;20409;-68
2023/12/08 03:07:04;;;;;;;82.97;27.07;;;;;;;;;;5054346;28;20974;-69
2023/12/08 03:09:30;;;;;;;72.17;25.70;;;;;;;;;;5053994;28;20417;-69
2023/12/08 03:11:57;;;;;;;76.23;28.57;;;;;;;;;;5052760;28;20475;-69
2023/12/08 03:14:24;;;;;;;74.23;25.73;;;;;;;;;;5053830;28;20429;-68
2023/12/08 03:16:50;;;;;;;74.83;27.00;;;;;;;;;;5053839;28;20768;-68
2023/12/08 03:19:17;;;;;;;83.17;27.57;;;;;;;;;;5053178;28;20898;-68
2023/12/08 03:21:44;;;;;;;78.23;25.40;;;;;;;;;;5053805;28;20795;-68
2023/12/08 03:24:11;;;;;;;85.33;27.70;;;;;;;;;;5052354;28;20944;-68
2023/12/08 03:26:38;;;;;;;75.70;26.00;;;;;;;;;;5069119;28;20487;-68
2023/12/08 03:29:04;;;;;;;73.93;26.77;;;;;;;;;;5068155;28;20765;-68
2023/12/08 03:31:32;;;;;;;75.40;26.33;;;;;;;;;;5053586;28;20423;-68
2023/12/08 03:33:58;;;;;;;74.03;24.73;;;;;;;;;;5069202;28;20781;-69
2023/12/08 03:36:25;;;;;;;68.67;24.07;;;;;;;;;;5053585;28;20480;-69
2023/12/08 03:38:52;;;;;;;82.37;26.40;;;;;;;;;;5053229;28;20413;-69
2023/12/08 03:41:19;;;;;;;80.47;26.07;;;;;;;;;;5069610;28;20437;-69
2023/12/08 03:43:46;;;;;;;79.57;28.53;;;;;;;;;;5052234;28;20460;-69
2023/12/08 03:46:12;;;;;;;80.17;27.40;;;;;;;;;;5064026;28;20507;-69
2023/12/08 03:48:39;;;;;;;73.37;26.90;;;;;;;;;;5078016;28;20448;-69
2023/12/08 03:51:06;;;;;;;73.63;26.70;;;;;;;;;;5066507;28;20577;-69
2023/12/08 03:53:33;;;;;;;77.80;27.60;;;;;;;;;;5084418;28;20786;-69
2023/12/08 03:56:00;;;;;;;84.80;26.77;;;;;;;;;;5083674;28;20492;-67
2023/12/08 03:58:27;;;;;;;71.43;27.27;;;;;;;;;;5066464;28;20497;-67
2023/12/08 04:00:53;;;;;;;75.57;27.03;;;;;;;;;;5068458;28;20419;-67
2023/12/08 04:03:20;;;;;;;69.83;26.83;;;;;;;;;;5088860;28;20482;-67
2023/12/08 04:05:47;;;;;;;74.67;27.83;;;;;;;;;;5070284;28;20423;-68
2023/12/08 04:08:14;;;;;;;72.40;27.87;;;;;;;;;;5086679;28;20419;-67
2023/12/08 04:10:41;;;;;;;68.87;27.43;;;;;;;;;;5087077;28;20431;-68
2023/12/08 04:13:07;;;;;;;81.33;28.40;;;;;;;;;;5070254;28;20465;-69
2023/12/08 04:15:34;;;;;;;83.90;29.27;;;;;;;;;;5088272;28;20443;-68
2023/12/08 04:18:01;;;;;;;83.70;29.67;;;;;;;;;;5088340;28;20423;-68
2023/12/08 04:20:28;;;;;;;87.47;29.27;;;;;;;;;;5088742;28;20545;-69
2023/12/08 04:22:55;;;;;;;87.00;28.93;;;;;;;;;;5086746;28;20487;-68
2023/12/08 04:25:22;;;;;;;101.27;32.53;;;;;;;;;;5088314;28;20790;-69
2023/12/08 04:27:50;;;;;;;100.07;31.97;;;;;;;;;;5088601;28;21554;-69
2023/12/08 04:30:20;;;;;;;97.33;31.47;;;;;;;;;;5088484;28;20426;-69
2023/12/08 04:32:49;;;;;;;118.53;33.93;;;;;;;;;;5069658;28;20493;-69
2023/12/08 04:35:16;;;;;;;101.70;31.50;;;;;;;;;;5088171;28;20432;-69
2023/12/08 04:37:43;;;;;;;116.27;36.03;;;;;;;;;;5088101;28;20983;-69
2023/12/08 04:40:10;;;;;;;125.23;36.97;;;;;;;;;;5086677;28;20415;-69
2023/12/08 04:42:39;;;;;;;123.27;37.60;;;;;;;;;;5088042;28;20466;-69
2023/12/08 04:45:23;;;;;;;123.47;37.70;;;;;;;;;;5074916;28;20442;-69
2023/12/08 04:47:50;;;;;;;123.00;39.03;;;;;;;;;;5086027;28;20450;-69
2023/12/08 04:50:18;;;;;;;118.23;35.93;;;;;;;;;;5086402;28;20435;-69
2023/12/08 04:52:46;;;;;;;142.37;38.73;;;;;;;;;;5086915;28;20446;-69
2023/12/08 04:55:13;;;;;;;123.93;37.93;;;;;;;;;;5086460;28;20476;-66
2023/12/08 04:57:40;;;;;;;128.50;38.90;;;;;;;;;;5069117;28;20431;-67
2023/12/08 05:00:08;;;;;;;125.27;38.30;;;;;;;;;;5087580;28;20420;-69
2023/12/08 05:02:35;;;;;;;124.97;37.43;;;;;;;;;;5069074;28;20435;-69
2023/12/08 05:05:03;;;;;;;119.00;36.43;;;;;;;;;;5069028;28;20514;-70
2023/12/08 05:07:30;;;;;;;113.10;36.00;;;;;;;;;;5087573;28;20518;-67
2023/12/08 05:09:58;;;;;;;122.63;38.73;;;;;;;;;;5087632;28;20459;-69
2023/12/08 05:12:43;;;;;;;113.00;35.57;;;;;;;;;;5068916;28;20527;-67
2023/12/08 05:15:11;;;;;;;121.90;37.10;;;;;;;;;;5085921;28;20605;-69
2023/12/08 05:17:39;;;;;;;123.97;37.93;;;;;;;;;;5086212;28;20416;-67
2023/12/08 05:20:06;;;;;;;118.03;36.13;;;;;;;;;;5068943;28;20464;-70
2023/12/08 05:22:34;;;;;;;131.37;38.13;;;;;;;;;;5085966;28;20423;-69
2023/12/08 05:25:03;;;;;;;127.33;38.20;;;;;;;;;;5085564;28;20514;-67
2023/12/08 05:27:31;;;;;;;130.03;41.37;;;;;;;;;;5069325;28;20542;-66
2023/12/08 05:29:58;;;;;;;130.13;39.87;;;;;;;;;;5068960;28;20748;-66
2023/12/08 05:32:26;;;;;;;134.57;41.20;;;;;;;;;;5068826;28;20839;-66
2023/12/08 05:34:55;;;;;;;146.43;41.33;;;;;;;;;;5068586;28;20456;-64
2023/12/08 05:37:22;;;;;;;128.07;38.10;;;;;;;;;;5068368;28;20416;-64
2023/12/08 05:39:51;;;;;;;140.53;36.90;;;;;;;;;;5085410;28;20469;-64
2023/12/08 05:42:18;;;;;;;126.90;35.63;;;;;;;;;;5068502;28;20797;-64
2023/12/08 05:44:45;;;;;;;140.73;39.70;;;;;;;;;;5086836;28;20478;-64
2023/12/08 05:47:13;;;;;;;126.70;35.57;;;;;;;;;;5058535;28;20450;-64
2023/12/08 05:49:40;;;;;;;144.30;40.70;;;;;;;;;;5086836;28;20442;-65
2023/12/08 05:52:08;;;;;;;128.00;39.87;;;;;;;;;;5086670;28;20443;-68
2023/12/08 05:54:37;;;;;;;145.67;39.83;;;;;;;;;;5068226;28;20431;-65
2023/12/08 05:57:08;;;;;;;140.80;40.03;;;;;;;;;;5067913;28;20438;-66
2023/12/08 05:59:35;;;;;;;132.93;39.17;;;;;;;;;;5085115;28;20419;-66
2023/12/08 06:02:03;;;;;;;139.60;39.83;;;;;;;;;;5086144;28;20432;-66
2023/12/08 06:04:30;;;;;;;135.63;39.60;;;;;;;;;;5086516;28;20879;-68
2023/12/08 06:06:57;;;;;;;138.80;38.17;;;;;;;;;;5086739;28;20898;-66
2023/12/08 06:09:25;;;;;;;148.93;39.40;;;;;;;;;;5068182;28;20435;-67
2023/12/08 06:11:52;;;;;;;139.67;38.70;;;;;;;;;;5067969;28;20439;-66
2023/12/08 06:14:19;;;;;;;145.43;40.17;;;;;;;;;;5067646;28;20562;-66
2023/12/08 06:16:47;;;;;;;149.70;43.63;;;;;;;;;;5067794;28;20755;-68
2023/12/08 06:19:14;;;;;;;149.07;44.47;;;;;;;;;;5085983;28;20428;-69
2023/12/08 06:21:42;;;;;;;153.33;43.80;;;;;;;;;;5086683;28;20431;-67
2023/12/08 06:24:11;;;;;;;150.73;45.10;;;;;;;;;;5085200;28;20820;-66
2023/12/08 06:26:38;;;;;;;137.13;42.67;;;;;;;;;;5067880;28;20427;-67
2023/12/08 06:29:08;;;;;;;121.67;42.13;;;;;;;;;;5067916;28;20431;-67
2023/12/08 06:31:39;;;;;;;147.73;44.57;;;;;;;;;;5086260;28;20834;-69
2023/12/08 06:34:09;;;;;;;131.30;42.63;;;;;;;;;;5068002;28;20427;-69
2023/12/08 06:36:45;;;;;;;135.93;41.37;;;;;;;;;;5086032;28;20488;-69
2023/12/08 06:39:12;;;;;;;147.53;40.83;;;;;;;;;;5067486;28;20431;-69
2023/12/08 06:41:40;;;;;;;148.70;44.80;;;;;;;;;;5085805;28;20419;-69
2023/12/08 06:44:08;;;;;;;135.20;41.33;;;;;;;;;;5074157;28;20542;-67
2023/12/08 06:46:35;;;;;;;136.70;43.57;;;;;;;;;;5077343;28;20411;-68
2023/12/08 06:49:02;;;;;;;135.77;42.63;;;;;;;;;;5076742;28;20934;-68
2023/12/08 06:51:36;;;;;;;125.57;40.67;;;;;;;;;;5077597;28;20423;-67
2023/12/08 06:54:08;;;;;;;136.67;42.80;;;;;;;;;;5076967;28;20485;-68
2023/12/08 06:56:39;;;;;;;133.07;39.43;;;;;;;;;;5094485;28;20447;-68
2023/12/08 06:59:08;;;;;;;125.97;40.70;;;;;;;;;;5093107;28;20754;-69
2023/12/08 07:01:41;;;;;;;135.10;40.07;;;;;;;;;;5093765;28;20408;-69
2023/12/08 07:04:11;;;;;;;137.07;42.03;;;;;;;;;;5076756;28;20455;-69
2023/12/08 07:06:41;;;;;;;129.77;42.60;;;;;;;;;;5095311;28;20388;-69
2023/12/08 07:09:09;;;;;;;137.50;40.73;;;;;;;;;;5093620;28;20424;-67
2023/12/08 07:11:37;;;;;;;128.33;41.00;;;;;;;;;;5095298;28;20412;-67
2023/12/08 07:14:04;;;;;;;133.77;40.77;;;;;;;;;;5095068;28;20447;-67
2023/12/08 07:16:32;;;;;;;142.83;41.77;;;;;;;;;;5076296;28;20422;-66
2023/12/08 07:19:01;;;;;;;123.60;41.77;;;;;;;;;;5094531;28;20439;-68
2023/12/08 07:25:28;;;;;;;133.70;41.37;;;;;;;;;;5085117;28;21095;-69
2023/12/08 07:31:57;;;;;;;136.43;40.43;;;;;;;;;;5085207;28;20452;-70
2023/12/08 07:34:24;;;;;;;130.23;40.73;;;;;;;;;;5066278;28;20427;-68
2023/12/08 07:36:52;;;;;;;126.53;40.47;;;;;;;;;;5085209;28;20428;-70
2023/12/08 07:39:19;;;;;;;122.70;38.73;;;;;;;;;;5084798;28;20431;-68
2023/12/08 07:41:47;;;;;;;122.43;39.23;;;;;;;;;;5067068;28;20914;-67
2023/12/08 07:44:14;;;;;;;120.90;39.43;;;;;;;;;;5066958;28;20519;-68
2023/12/08 07:46:41;;;;;;;125.07;40.03;;;;;;;;;;5050420;28;20419;-72
2023/12/08 07:49:09;;;;;;;128.80;40.20;;;;;;;;;;5067158;28;20452;-68
2023/12/08 07:51:37;;;;;;;126.13;39.63;;;;;;;;;;5066365;28;20918;-69
2023/12/08 07:54:04;;;;;;;119.03;38.83;;;;;;;;;;5085025;28;20813;-68
2023/12/08 07:56:33;;;;;;;111.23;37.93;;;;;;;;;;5083991;28;20809;-68
2023/12/08 07:59:00;;;;;;;112.90;38.77;;;;;;;;;;5050134;28;21644;-69
2023/12/08 08:05:27;;;;;;;116.43;38.37;;;;;;;;;;5084624;28;20893;-68
2023/12/08 08:07:54;;;;;;;108.10;37.17;;;;;;;;;;5066550;28;20886;-69
2023/12/08 08:10:24;;;;;;;114.47;38.90;;;;;;;;;;5066205;28;20435;-71
2023/12/08 08:12:51;;;;;;;116.53;37.90;;;;;;;;;;5084792;28;20432;-67
2023/12/08 08:15:18;;;;;;;117.97;38.80;;;;;;;;;;5084698;28;20432;-68
2023/12/08 08:17:46;;;;;;;115.83;37.80;;;;;;;;;;5084331;28;20423;-69
2023/12/08 08:20:13;;;;;;;98.40;33.37;;;;;;;;;;5050377;28;20451;-68
2023/12/08 08:22:41;;;;;;;113.20;37.77;;;;;;;;;;5073008;28;20849;-69
2023/12/08 08:25:26;;;;;;;117.40;37.40;;;;;;;;;;5069818;28;20459;-68
2023/12/08 08:27:55;;;;;;;103.60;36.90;;;;;;;;;;5084757;28;20455;-69
2023/12/08 08:30:23;;;;;;;104.80;34.90;;;;;;;;;;5066771;28;20442;-68
2023/12/08 08:32:51;;;;;;;99.70;34.97;;;;;;;;;;5066435;28;20493;-69
2023/12/08 08:35:18;;;;;;;99.87;36.10;;;;;;;;;;5048617;28;21753;-69
2023/12/08 08:37:46;;;;;;;92.00;36.40;;;;;;;;;;5065741;28;20411;-68
2023/12/08 08:40:13;;;;;;;107.87;39.33;;;;;;;;;;5083799;28;20511;-67
2023/12/08 08:42:40;;;;;;;109.47;39.43;;;;;;;;;;5049110;28;20442;-69
2023/12/08 08:45:08;;;;;;;101.53;39.33;;;;;;;;;;5083470;28;20467;-69
2023/12/08 08:47:35;;;;;;;101.40;36.77;;;;;;;;;;5067954;28;20524;-68
2023/12/08 08:50:02;;;;;;;87.10;31.77;;;;;;;;;;5048845;28;20783;-68
2023/12/08 08:52:29;;;;;;;104.37;37.43;;;;;;;;;;5067158;28;20416;-67
2023/12/08 08:54:56;;;;;;;96.17;36.47;;;;;;;;;;5067325;28;20737;-67
2023/12/08 08:57:23;;;;;;;97.00;36.73;;;;;;;;;;5049259;28;21721;-68
2023/12/08 08:59:50;;;;;;;94.33;37.00;;;;;;;;;;5071186;28;20428;-68
2023/12/08 09:02:17;;;;;;;96.37;35.10;;;;;;;;;;5075377;28;20435;-68
2023/12/08 09:04:43;;;;;;;103.57;36.67;;;;;;;;;;5077041;28;20460;-69
2023/12/08 09:07:10;;;;;;;96.93;33.67;;;;;;;;;;5075624;28;20651;-67
2023/12/08 09:09:38;;;;;;;95.23;34.60;;;;;;;;;;5076429;28;20934;-67
2023/12/08 09:12:10;;;;;;;95.77;35.80;;;;;;;;;;5076426;28;20397;-67
2023/12/08 09:14:38;;;;;;;100.23;36.10;;;;;;;;;;5075470;28;20990;-68
2023/12/08 09:17:05;;;;;;;105.17;36.30;;;;;;;;;;5075560;28;20425;-67
2023/12/08 09:19:32;;;;;;;90.40;34.33;;;;;;;;;;5075834;28;20903;-68
2023/12/08 09:21:59;;;;;;;94.83;34.83;;;;;;;;;;5076143;28;20747;-68
2023/12/08 09:24:26;;;;;;;90.40;33.30;;;;;;;;;;5076123;28;20483;-68
2023/12/08 09:26:53;;;;;;;89.43;32.83;;;;;;;;;;5076132;28;20431;-68
2023/12/08 09:29:20;;;;;;;91.03;35.07;;;;;;;;;;5074836;28;20794;-69
2023/12/08 09:31:47;;;;;;;106.47;35.17;;;;;;;;;;5076092;28;20978;-68
2023/12/08 09:34:13;;;;;;;102.37;37.47;;;;;;;;;;5075942;28;20418;-68
2023/12/08 09:36:40;;;;;;;93.97;34.80;;;;;;;;;;5075127;28;20431;-68
2023/12/08 09:39:27;;;;;;;94.07;34.33;;;;;;;;;;5075178;28;20430;-68
2023/12/08 09:41:54;;;;;;;94.67;32.97;;;;;;;;;;5075372;28;20511;-67
2023/12/08 09:44:21;;;;;;;106.30;37.67;;;;;;;;;;5074591;28;20454;-69
2023/12/08 09:46:54;;;;;;;93.13;34.30;;;;;;;;;;5076042;28;20770;-69
2023/12/08 09:49:42;;;;;;;104.77;36.53;;;;;;;;;;5074834;28;20917;-69
2023/12/08 09:52:09;;;;;;;102.93;34.40;;;;;;;;;;5075155;28;20428;-68
2023/12/08 09:54:53;;;;;;;91.37;33.60;;;;;;;;;;5074593;28;20468;-68
2023/12/08 09:57:20;;;;;;;92.20;31.53;;;;;;;;;;5074975;28;20583;-68
2023/12/08 09:59:47;;;;;;;92.73;33.53;;;;;;;;;;5075886;28;20420;-67
2023/12/08 10:02:14;;;;;;;88.80;32.33;;;;;;;;;;5075427;28;20432;-67
2023/12/08 10:04:41;;;;;;;102.40;36.77;;;;;;;;;;5074122;28;20460;-68
2023/12/08 10:07:09;;;;;;;99.13;35.60;;;;;;;;;;5074485;28;20515;-68
2023/12/08 10:09:35;;;;;;;98.47;34.53;;;;;;;;;;5057647;28;20454;-68
2023/12/08 10:12:02;;;;;;;78.67;27.87;;;;;;;;;;5074146;28;20444;-67
2023/12/08 10:14:31;;;;;;;88.00;32.23;;;;;;;;;;5075356;28;20538;-68
2023/12/08 10:16:58;;;;;;;89.67;33.07;;;;;;;;;;5074004;28;20478;-67
2023/12/08 10:19:25;;;;;;;104.07;37.13;;;;;;;;;;5075165;28;20544;-67
2023/12/08 10:21:58;;;;;;;102.83;35.70;;;;;;;;;;5074414;28;20503;-69
2023/12/08 10:24:26;;;;;;;95.53;35.53;;;;;;;;;;5073753;28;20451;-68
2023/12/08 10:26:53;;;;;;;86.13;32.60;;;;;;;;;;5074367;28;20455;-68
2023/12/08 10:29:20;;;;;;;85.97;32.10;;;;;;;;;;5073911;28;20421;-67
2023/12/08 10:31:48;;;;;;;84.97;31.37;;;;;;;;;;5073780;28;20435;-67
2023/12/08 10:34:15;;;;;;;84.37;33.03;;;;;;;;;;5073731;28;20487;-67
2023/12/08 10:36:41;;;;;;;78.63;30.40;;;;;;;;;;5074913;28;20768;-69
2023/12/08 10:39:09;;;;;;;85.87;31.87;;;;;;;;;;5073878;28;20424;-69
2023/12/08 10:41:54;;;;;;;80.33;30.43;;;;;;;;;;5074288;28;20745;-69
2023/12/08 10:44:21;;;;;;;89.70;31.40;;;;;;;;;;5073833;28;20447;-68
2023/12/08 10:47:04;;;;;;;85.47;32.33;;;;;;;;;;5056816;28;20478;-69
2023/12/08 10:49:31;;;;;;;95.00;32.97;;;;;;;;;;5073516;28;20417;-69
2023/12/08 10:52:15;;;;;;;91.93;31.40;;;;;;;;;;5074058;28;20396;-69
2023/12/08 10:54:42;;;;;;;87.47;31.13;;;;;;;;;;5074944;28;20425;-69
2023/12/08 10:57:08;;;;;;;89.13;31.83;;;;;;;;;;5074731;28;20427;-69
2023/12/08 10:59:36;;;;;;;80.43;30.70;;;;;;;;;;5073715;28;20794;-69
2023/12/08 11:02:02;;;;;;;93.90;33.13;;;;;;;;;;5074103;28;20897;-69
2023/12/08 11:04:49;;;;;;;86.53;31.50;;;;;;;;;;5074064;28;21008;-67
2023/12/08 11:07:16;;;;;;;85.40;30.97;;;;;;;;;;5073245;28;20957;-68
2023/12/08 11:09:43;;;;;;;80.90;31.17;;;;;;;;;;5073158;28;20498;-67
2023/12/08 11:12:10;;;;;;;88.87;32.40;;;;;;;;;;5073251;28;20736;-69
2023/12/08 11:14:38;;;;;;;85.97;30.97;;;;;;;;;;5072954;28;20548;-69
2023/12/08 11:17:08;;;;;;;83.43;29.07;;;;;;;;;;5072900;28;20417;-68
2023/12/08 11:19:35;;;;;;;81.83;30.63;;;;;;;;;;5073684;28;20428;-68
2023/12/08 11:22:02;;;;;;;89.67;31.53;;;;;;;;;;5073419;28;20423;-69
2023/12/08 11:24:28;;;;;;;83.00;31.30;;;;;;;;;;5073324;28;20462;-68
2023/12/08 11:27:06;;;;;;;88.53;32.03;;;;;;;;;;5074030;28;20417;-67
2023/12/08 11:29:53;;;;;;;80.97;30.53;;;;;;;;;;5073491;28;20388;-68
2023/12/08 11:32:20;;;;;;;83.37;30.90;;;;;;;;;;5074510;28;20404;-68
2023/12/08 11:34:52;;;;;;;86.97;31.57;;;;;;;;;;5056412;28;20486;-69
2023/12/08 11:37:18;;;;;;;73.63;30.17;;;;;;;;;;5073274;28;20446;-69
2023/12/08 11:39:45;;;;;;;77.43;29.93;;;;;;;;;;5073256;28;20417;-67
2023/12/08 11:42:13;;;;;;;92.70;31.23;;;;;;;;;;5072642;28;20467;-67
2023/12/08 11:44:44;;;;;;;86.37;32.23;;;;;;;;;;5056190;28;20788;-69
2023/12/08 11:47:11;;;;;;;87.47;30.90;;;;;;;;;;5073385;28;20435;-69
2023/12/08 11:49:38;;;;;;;82.60;29.80;;;;;;;;;;5073295;28;20496;-67
2023/12/08 11:52:13;;;;;;;79.37;30.60;;;;;;;;;;5055951;28;20450;-69
2023/12/08 11:54:59;;;;;;;78.97;30.37;;;;;;;;;;5056039;28;20537;-67
2023/12/08 11:57:29;;;;;;;85.07;30.63;;;;;;;;;;5074175;28;20407;-69
2023/12/08 11:59:56;;;;;;;95.13;32.20;;;;;;;;;;5073027;28;20417;-69
2023/12/08 12:02:23;;;;;;;99.27;31.67;;;;;;;;;;5072387;28;20438;-69
2023/12/08 12:04:49;;;;;;;85.40;30.70;;;;;;;;;;5072181;28;20546;-69
2023/12/08 12:07:22;;;;;;;81.30;28.63;;;;;;;;;;5072562;28;20475;-69
2023/12/08 12:09:49;;;;;;;85.50;30.37;;;;;;;;;;5060308;28;20455;-69
2023/12/08 12:12:24;;;;;;;69.83;25.10;;;;;;;;;;5093256;28;20485;-69
2023/12/08 12:14:54;;;;;;;79.73;29.17;;;;;;;;;;5059447;28;20431;-69
2023/12/08 12:17:24;;;;;;;79.03;28.70;;;;;;;;;;5043622;28;20455;-70
2023/12/08 12:19:51;;;;;;;69.90;27.90;;;;;;;;;;5076492;28;20427;-67
2023/12/08 12:22:18;;;;;;;74.80;27.97;;;;;;;;;;5062193;28;20423;-68
2023/12/08 12:24:45;;;;;;;81.03;29.23;;;;;;;;;;5079901;28;20470;-67
2023/12/08 12:27:13;;;;;;;68.07;26.80;;;;;;;;;;5097632;28;20756;-67
2023/12/08 12:29:40;;;;;;;78.73;28.93;;;;;;;;;;5063839;28;20446;-67
2023/12/08 12:32:08;;;;;;;69.57;26.27;;;;;;;;;;5085547;28;20493;-67
2023/12/08 12:34:35;;;;;;;63.80;24.57;;;;;;;;;;5076127;28;20432;-68
2023/12/08 12:37:02;;;;;;;69.13;25.83;;;;;;;;;;5076171;28;20455;-68
2023/12/08 12:39:29;;;;;;;64.20;25.27;;;;;;;;;;5076434;28;20420;-68
2023/12/08 12:41:59;;;;;;;65.27;24.93;;;;;;;;;;5059358;28;20424;-68
2023/12/08 12:44:45;;;;;;;73.97;25.80;;;;;;;;;;5059732;28;20788;-68
2023/12/08 12:47:20;;;;;;;64.13;21.57;;;;;;;;;;5059320;28;20436;-68
2023/12/08 12:50:00;;;;;;;69.20;22.40;;;;;;;;;;5059794;28;20392;-68
2023/12/08 12:52:44;;;;;;;61.73;22.93;;;;;;;;;;5076296;28;20417;-67
2023/12/08 12:55:23;;;;;;;61.60;23.93;;;;;;;;;;5058996;28;20915;-68
2023/12/08 12:57:50;;;;;;;61.67;22.90;;;;;;;;;;5075557;28;20916;-68
2023/12/08 13:00:35;;;;;;;63.97;22.63;;;;;;;;;;5077407;28;20425;-68
2023/12/08 13:03:19;;;;;;;63.60;23.73;;;;;;;;;;5075276;28;20416;-67
2023/12/08 13:05:49;;;;;;;58.47;23.63;;;;;;;;;;5077152;28;20448;-68
2023/12/08 13:08:16;;;;;;;66.70;24.70;;;;;;;;;;5058726;28;20432;-68
2023/12/08 13:10:44;;;;;;;62.50;24.13;;;;;;;;;;5075412;28;20426;-68
2023/12/08 13:13:12;;;;;;;67.27;24.63;;;;;;;;;;5075957;28;20448;-67
2023/12/08 13:15:56;;;;;;;66.27;25.50;;;;;;;;;;5061584;28;20825;-68
2023/12/08 13:18:25;;;;;;;77.30;26.73;;;;;;;;;;5075679;28;20416;-68
2023/12/08 13:21:09;;;;;;;71.57;25.93;;;;;;;;;;5077091;28;20890;-68
2023/12/08 13:23:36;;;;;;;64.13;22.03;;;;;;;;;;5058531;28;20802;-68
2023/12/08 13:26:04;;;;;;;65.43;24.63;;;;;;;;;;5088276;28;20463;-68
2023/12/08 13:28:33;;;;;;;66.23;22.13;;;;;;;;;;5097171;28;20957;-68
2023/12/08 13:31:00;;;;;;;48.43;19.07;;;;;;;;;;5078331;28;20907;-67
2023/12/08 13:33:27;;;;;;;56.10;22.23;;;;;;;;;;5094602;28;20416;-67
2023/12/08 13:35:55;;;;;;;65.43;23.60;;;;;;;;;;5097143;28;20806;-68
2023/12/08 13:38:22;;;;;;;63.03;23.27;;;;;;;;;;5078163;28;20465;-68
2023/12/08 13:40:48;;;;;;;76.80;30.67;;;;;;;;;;5078713;28;20427;-68
2023/12/08 13:43:15;;;;;;;78.83;28.37;;;;;;;;;;5061612;28;20898;-68
2023/12/08 13:45:42;;;;;;;65.73;25.13;;;;;;;;;;5078029;28;20498;-68
2023/12/08 13:48:09;;;;;;;73.30;26.00;;;;;;;;;;5095834;28;20443;-68
2023/12/08 13:50:36;;;;;;;66.87;25.23;;;;;;;;;;5078057;28;20420;-68
2023/12/08 13:53:16;;;;;;;59.67;22.83;;;;;;;;;;5078621;28;20440;-68
2023/12/08 13:55:43;;;;;;;67.87;25.50;;;;;;;;;;5078086;28;20420;-68
2023/12/08 13:58:09;;;;;;;67.77;23.27;;;;;;;;;;5096349;28;20534;-68
2023/12/08 14:00:36;;;;;;;83.07;28.70;;;;;;;;;;5078085;28;20414;-68
2023/12/08 14:03:03;;;;;;;84.67;28.30;;;;;;;;;;5096013;28;20415;-68
2023/12/08 14:05:30;;;;;;;70.63;26.57;;;;;;;;;;5094762;28;20946;-67
2023/12/08 14:07:57;;;;;;;60.60;22.60;;;;;;;;;;5095862;28;20439;-67
2023/12/08 14:10:24;;;;;;;71.03;25.97;;;;;;;;;;5077934;28;20416;-67
2023/12/08 14:12:51;;;;;;;76.27;23.97;;;;;;;;;;5096085;28;20894;-67
2023/12/08 14:15:19;;;;;;;76.03;27.10;;;;;;;;;;5061625;28;20936;-68
2023/12/08 14:17:46;;;;;;;73.30;25.23;;;;;;;;;;5096116;28;20446;-68
2023/12/08 14:20:12;;;;;;;66.63;24.70;;;;;;;;;;5061096;28;20902;-68
2023/12/08 14:34:10;;;;;;;69.87;25.10;;;;;;;;;;5066490;28;20723;-68
2023/12/08 14:36:38;;;;;;;74.83;24.13;;;;;;;;;;5048271;28;20443;-69
2023/12/08 14:39:05;;;;;;;72.57;26.53;;;;;;;;;;5064421;28;20435;-68
2023/12/08 14:41:33;;;;;;;66.80;25.23;;;;;;;;;;5048457;28;20903;-69
2023/12/08 14:44:00;;;;;;;75.20;27.80;;;;;;;;;;5064269;28;20416;-70
2023/12/08 14:46:27;;;;;;;73.17;25.93;;;;;;;;;;5066020;28;20464;-71
2023/12/08 14:48:54;;;;;;;76.90;26.60;;;;;;;;;;5066445;28;20455;-70
2023/12/08 14:51:22;;;;;;;70.47;25.40;;;;;;;;;;5055698;28;20772;-67
2023/12/08 14:53:51;;;;;;;84.87;29.07;;;;;;;;;;5040482;28;20435;-68
2023/12/08 14:56:18;;;;;;;81.37;27.97;;;;;;;;;;5057990;28;20428;-67
2023/12/08 14:58:46;;;;;;;78.17;26.20;;;;;;;;;;5074605;28;20474;-67
2023/12/08 15:01:17;;;;;;;58.40;21.97;;;;;;;;;;5057148;28;20899;-67
2023/12/08 15:03:44;;;;;;;68.73;24.47;;;;;;;;;;5073276;28;20767;-67
2023/12/08 15:06:12;;;;;;;66.67;24.63;;;;;;;;;;5039935;28;20452;-67
2023/12/08 15:08:39;;;;;;;75.27;28.33;;;;;;;;;;5056732;28;20482;-67
2023/12/08 15:11:07;;;;;;;68.33;25.20;;;;;;;;;;5056674;28;20408;-67
2023/12/08 15:13:34;;;;;;;74.00;26.43;;;;;;;;;;5072158;28;20758;-72
2023/12/08 15:16:03;;;;;;;80.73;29.67;;;;;;;;;;5056336;28;20494;-68
2023/12/08 15:18:31;;;;;;;82.07;29.67;;;;;;;;;;5073901;28;20511;-69
2023/12/08 15:21:21;;;;;;;90.77;31.13;;;;;;;;;;5059228;28;20898;-68